Erigavo Airport


Codes: HCMU/ERA
Name: Erigavo Airport
City: Erigavo
Country: Somalia
Elevation: 5720 ft.
Wikipedia:

Photos at Erigavo Airport


   Photos courtesy of SpottingLog. You can add your own sightings and photos by signing up for a free trial today.



No photos found.

Weather at Erigavo Airport


Time (UTC)DescriptionTempratureWindCloud coverageVisibilityPressureHumidity
19-Apr-2024 06:00Overcast Clouds19°C4 mph, SE90%10000m1015hPa79%
19-Apr-2024 09:00Light Rain22°C2 mph, SE93%10000m1013hPa64%
19-Apr-2024 12:00Light Rain24°C4 mph, W94%10000m1010hPa55%
19-Apr-2024 15:00Light Rain22°C4 mph, SW100%10000m1011hPa59%
19-Apr-2024 18:00Light Rain21°C7 mph, S100%10000m1013hPa67%
19-Apr-2024 21:00Light Rain21°C4 mph, SW63%10000m1011hPa66%
20-Apr-2024 00:00Light Rain20°C4 mph, S73%10000m1010hPa69%
20-Apr-2024 03:00Light Rain19°C7 mph, S76%10000m1012hPa76%
20-Apr-2024 06:00Broken Clouds22°C7 mph, S65%10000m1013hPa62%
20-Apr-2024 09:00Light Rain23°C4 mph, SW95%10000m1012hPa57%
20-Apr-2024 12:00Moderate Rain23°C2 mph, S94%10000m1010hPa58%
20-Apr-2024 15:00Moderate Rain21°C4 mph, SE97%10000m1011hPa64%
20-Apr-2024 18:00Moderate Rain20°C4 mph, SE89%10000m1012hPa70%
20-Apr-2024 21:00Light Rain19°C7 mph, SE98%10000m1012hPa73%
21-Apr-2024 00:00Light Rain18°C7 mph, SE80%10000m1011hPa80%
21-Apr-2024 03:00Light Rain18°C7 mph, SE80%10000m1013hPa80%
21-Apr-2024 06:00Broken Clouds21°C4 mph, S80%10000m1014hPa62%
21-Apr-2024 09:00Light Rain23°C4 mph, SE99%10000m1013hPa57%
21-Apr-2024 12:00Moderate Rain21°C4 mph, S100%4403m1011hPa65%
21-Apr-2024 15:00Moderate Rain19°C2 mph, SW100%10000m1013hPa75%
21-Apr-2024 18:00Light Rain20°C0 mph, SW100%10000m1014hPa69%
21-Apr-2024 21:00Light Rain20°C2 mph, SE100%10000m1013hPa70%
22-Apr-2024 00:00Light Rain19°C4 mph, SE100%10000m1013hPa76%
22-Apr-2024 03:00Light Rain18°C4 mph, S100%10000m1014hPa79%
22-Apr-2024 06:00Light Rain20°C2 mph, SE100%10000m1015hPa65%
22-Apr-2024 09:00Light Rain22°C2 mph, SE99%10000m1013hPa60%
22-Apr-2024 12:00Moderate Rain22°C2 mph, S99%8885m1011hPa62%
22-Apr-2024 15:00Moderate Rain21°C2 mph, SE94%10000m1012hPa67%
22-Apr-2024 18:00Moderate Rain20°C4 mph, S97%10000m1014hPa73%
22-Apr-2024 21:00Light Rain20°C4 mph, SE83%10000m1013hPa73%
23-Apr-2024 00:00Light Rain18°C7 mph, SE86%10000m1012hPa81%
23-Apr-2024 03:00Light Rain18°C7 mph, SE99%10000m1014hPa87%
23-Apr-2024 06:00Light Rain19°C7 mph, S99%10000m1015hPa83%
23-Apr-2024 09:00Light Rain21°C4 mph, S97%10000m1013hPa67%
23-Apr-2024 12:00Moderate Rain22°C4 mph, S99%10000m1011hPa64%
23-Apr-2024 15:00Moderate Rain21°C7 mph, S99%10000m1012hPa68%
23-Apr-2024 18:00Light Rain20°C4 mph, SW99%10000m1014hPa72%
23-Apr-2024 21:00Light Rain19°C2 mph, SE97%10000m1012hPa74%
24-Apr-2024 00:00Light Rain19°C4 mph, SE95%10000m1011hPa74%
24-Apr-2024 03:00Light Rain19°C4 mph, S86%10000m1012hPa73%